sensor_id;sensor_type;location;lat;lon;timestamp;pressure;altitude;pressure_sealevel;temperature;humidity
60817;BME280;51921;51.518;-3.188;2022-08-23T00:00:14;100890.51;;;17.31;87.11
60817;BME280;51921;51.518;-3.188;2022-08-23T00:02:38;100891.94;;;18.48;82.05
60817;BME280;51921;51.518;-3.188;2022-08-23T00:05:04;100886.88;;;17.42;85.70
60817;BME280;51921;51.518;-3.188;2022-08-23T00:07:29;100876.72;;;18.06;82.38
60817;BME280;51921;51.518;-3.188;2022-08-23T00:09:54;100878.82;;;18.16;83.05
60817;BME280;51921;51.518;-3.188;2022-08-23T00:12:21;100883.86;;;18.93;79.86
60817;BME280;51921;51.518;-3.188;2022-08-23T00:14:51;100883.70;;;19.47;76.79
60817;BME280;51921;51.518;-3.188;2022-08-23T00:17:11;100885.22;;;17.95;84.09
60817;BME280;51921;51.518;-3.188;2022-08-23T00:19:36;100885.26;;;17.52;82.88
60817;BME280;51921;51.518;-3.188;2022-08-23T00:22:01;100885.89;;;18.95;78.71
60817;BME280;51921;51.518;-3.188;2022-08-23T00:24:27;100888.97;;;18.44;79.92
60817;BME280;51921;51.518;-3.188;2022-08-23T00:26:57;100888.01;;;19.05;79.79
60817;BME280;51921;51.518;-3.188;2022-08-23T00:29:18;100885.27;;;17.60;83.81
60817;BME280;51921;51.518;-3.188;2022-08-23T00:31:43;100882.07;;;17.99;81.05
60817;BME280;51921;51.518;-3.188;2022-08-23T00:34:08;100880.77;;;17.94;81.76
60817;BME280;51921;51.518;-3.188;2022-08-23T00:36:33;100883.10;;;17.65;84.03
60817;BME280;51921;51.518;-3.188;2022-08-23T00:38:59;100877.91;;;17.46;84.94
60817;BME280;51921;51.518;-3.188;2022-08-23T00:41:25;100875.52;;;18.28;80.33
60817;BME280;51921;51.518;-3.188;2022-08-23T00:43:49;100878.49;;;18.52;78.17
60817;BME280;51921;51.518;-3.188;2022-08-23T00:46:24;100880.35;;;18.40;78.78
60817;BME280;51921;51.518;-3.188;2022-08-23T00:48:41;100878.05;;;18.11;80.38
60817;BME280;51921;51.518;-3.188;2022-08-23T00:51:11;100881.67;;;18.41;78.93
60817;BME280;51921;51.518;-3.188;2022-08-23T00:53:35;100883.14;;;18.34;79.33
60817;BME280;51921;51.518;-3.188;2022-08-23T00:56:02;100881.05;;;17.86;79.79
60817;BME280;51921;51.518;-3.188;2022-08-23T00:58:22;100882.34;;;18.68;77.64
60817;BME280;51921;51.518;-3.188;2022-08-23T01:00:48;100883.30;;;19.10;75.08
60817;BME280;51921;51.518;-3.188;2022-08-23T01:03:13;100882.13;;;18.60;76.48
60817;BME280;51921;51.518;-3.188;2022-08-23T01:05:44;100880.11;;;18.40;78.50
60817;BME280;51921;51.518;-3.188;2022-08-23T01:08:03;100880.47;;;19.45;73.93
60817;BME280;51921;51.518;-3.188;2022-08-23T01:10:32;100880.07;;;18.32;76.45
60817;BME280;51921;51.518;-3.188;2022-08-23T01:13:00;100878.76;;;18.13;76.91
60817;BME280;51921;51.518;-3.188;2022-08-23T01:15:22;100877.72;;;18.94;75.73
60817;BME280;51921;51.518;-3.188;2022-08-23T01:17:48;100879.24;;;18.48;77.39
60817;BME280;51921;51.518;-3.188;2022-08-23T01:20:12;100883.90;;;18.38;76.83
60817;BME280;51921;51.518;-3.188;2022-08-23T01:22:39;100884.64;;;19.42;72.62
60817;BME280;51921;51.518;-3.188;2022-08-23T01:25:04;100884.26;;;17.69;78.09
60817;BME280;51921;51.518;-3.188;2022-08-23T01:27:26;100884.57;;;18.36;77.29
60817;BME280;51921;51.518;-3.188;2022-08-23T01:29:51;100881.83;;;19.13;73.47
60817;BME280;51921;51.518;-3.188;2022-08-23T01:32:17;100883.74;;;19.29;74.35
60817;BME280;51921;51.518;-3.188;2022-08-23T01:34:42;100885.42;;;18.63;76.53
60817;BME280;51921;51.518;-3.188;2022-08-23T01:37:08;100879.51;;;17.71;79.91
60817;BME280;51921;51.518;-3.188;2022-08-23T01:39:33;100883.30;;;18.60;78.22
60817;BME280;51921;51.518;-3.188;2022-08-23T01:41:58;100883.51;;;18.56;78.42
60817;BME280;51921;51.518;-3.188;2022-08-23T01:44:23;100881.88;;;18.50;77.18
60817;BME280;51921;51.518;-3.188;2022-08-23T01:46:49;100879.94;;;19.30;75.00
60817;BME280;51921;51.518;-3.188;2022-08-23T01:49:14;100879.27;;;18.80;74.78
60817;BME280;51921;51.518;-3.188;2022-08-23T01:51:39;100876.89;;;20.02;71.93
60817;BME280;51921;51.518;-3.188;2022-08-23T01:54:05;100879.13;;;18.97;74.04
60817;BME280;51921;51.518;-3.188;2022-08-23T01:56:31;100875.68;;;19.61;71.46
60817;BME280;51921;51.518;-3.188;2022-08-23T01:58:55;100878.28;;;18.89;73.59
60817;BME280;51921;51.518;-3.188;2022-08-23T02:01:21;100881.71;;;19.01;74.23
60817;BME280;51921;51.518;-3.188;2022-08-23T02:03:46;100880.83;;;19.77;72.64
60817;BME280;51921;51.518;-3.188;2022-08-23T02:06:11;100882.84;;;19.73;71.78
60817;BME280;51921;51.518;-3.188;2022-08-23T02:08:37;100877.09;;;21.24;67.63
60817;BME280;51921;51.518;-3.188;2022-08-23T02:11:07;100879.76;;;18.98;73.39
60817;BME280;51921;51.518;-3.188;2022-08-23T02:13:27;100879.25;;;18.97;73.47
60817;BME280;51921;51.518;-3.188;2022-08-23T02:15:53;100878.08;;;18.32;76.57
60817;BME280;51921;51.518;-3.188;2022-08-23T02:18:19;100879.83;;;18.81;73.84
60817;BME280;51921;51.518;-3.188;2022-08-23T02:20:44;100884.23;;;19.25;73.18
60817;BME280;51921;51.518;-3.188;2022-08-23T02:23:09;100877.86;;;19.59;71.69
60817;BME280;51921;51.518;-3.188;2022-08-23T02:25:34;100876.63;;;19.16;72.79
60817;BME280;51921;51.518;-3.188;2022-08-23T02:27:59;100869.63;;;18.59;74.03
60817;BME280;51921;51.518;-3.188;2022-08-23T02:30:25;100870.87;;;19.54;71.26
60817;BME280;51921;51.518;-3.188;2022-08-23T02:32:50;100880.44;;;18.47;74.82
60817;BME280;51921;51.518;-3.188;2022-08-23T02:35:16;100876.54;;;18.72;73.63
60817;BME280;51921;51.518;-3.188;2022-08-23T02:37:41;100874.83;;;19.75;71.30
60817;BME280;51921;51.518;-3.188;2022-08-23T02:40:07;100871.66;;;19.21;72.18
60817;BME280;51921;51.518;-3.188;2022-08-23T02:42:31;100865.84;;;18.95;72.54
60817;BME280;51921;51.518;-3.188;2022-08-23T02:44:57;100866.46;;;18.81;72.69
60817;BME280;51921;51.518;-3.188;2022-08-23T02:47:22;100868.35;;;19.65;71.64
60817;BME280;51921;51.518;-3.188;2022-08-23T02:49:47;100874.89;;;19.46;70.75
60817;BME280;51921;51.518;-3.188;2022-08-23T02:52:13;100876.72;;;19.71;69.67
60817;BME280;51921;51.518;-3.188;2022-08-23T02:54:38;100877.98;;;19.38;70.82
60817;BME280;51921;51.518;-3.188;2022-08-23T02:57:04;100876.39;;;19.84;69.20
60817;BME280;51921;51.518;-3.188;2022-08-23T02:59:29;100883.55;;;19.56;69.68
60817;BME280;51921;51.518;-3.188;2022-08-23T03:01:54;100885.71;;;18.88;70.87
60817;BME280;51921;51.518;-3.188;2022-08-23T03:04:20;100888.34;;;18.93;73.10
60817;BME280;51921;51.518;-3.188;2022-08-23T03:06:45;100883.49;;;19.00;71.94
60817;BME280;51921;51.518;-3.188;2022-08-23T03:09:10;100883.24;;;20.51;67.66
60817;BME280;51921;51.518;-3.188;2022-08-23T03:11:36;100887.17;;;19.38;70.93
60817;BME280;51921;51.518;-3.188;2022-08-23T03:14:01;100887.56;;;17.97;73.71
60817;BME280;51921;51.518;-3.188;2022-08-23T03:16:26;100891.45;;;18.60;74.09
60817;BME280;51921;51.518;-3.188;2022-08-23T03:18:52;100891.97;;;18.07;73.48
60817;BME280;51921;51.518;-3.188;2022-08-23T03:21:18;100888.25;;;17.79;76.86
60817;BME280;51921;51.518;-3.188;2022-08-23T03:23:43;100891.04;;;18.25;75.10
60817;BME280;51921;51.518;-3.188;2022-08-23T03:26:10;100882.40;;;18.08;75.38
60817;BME280;51921;51.518;-3.188;2022-08-23T03:28:35;100878.17;;;19.00;72.14
60817;BME280;51921;51.518;-3.188;2022-08-23T03:30:59;100886.35;;;18.52;73.10
60817;BME280;51921;51.518;-3.188;2022-08-23T03:33:24;100887.34;;;18.90;71.94
60817;BME280;51921;51.518;-3.188;2022-08-23T03:35:50;100885.34;;;19.91;68.66
60817;BME280;51921;51.518;-3.188;2022-08-23T03:38:15;100877.65;;;20.62;66.04
60817;BME280;51921;51.518;-3.188;2022-08-23T03:40:40;100875.68;;;19.55;68.09
60817;BME280;51921;51.518;-3.188;2022-08-23T03:43:05;100876.30;;;19.84;67.90
60817;BME280;51921;51.518;-3.188;2022-08-23T03:45:31;100873.34;;;19.80;67.60
60817;BME280;51921;51.518;-3.188;2022-08-23T03:47:56;100880.80;;;20.05;66.21
60817;BME280;51921;51.518;-3.188;2022-08-23T03:50:21;100877.79;;;19.99;66.65
60817;BME280;51921;51.518;-3.188;2022-08-23T03:52:46;100874.20;;;20.34;65.77
60817;BME280;51921;51.518;-3.188;2022-08-23T03:55:13;100878.74;;;20.08;65.78
60817;BME280;51921;51.518;-3.188;2022-08-23T03:57:37;100871.71;;;20.21;65.51
60817;BME280;51921;51.518;-3.188;2022-08-23T04:00:05;100864.34;;;20.51;64.82
60817;BME280;51921;51.518;-3.188;2022-08-23T04:02:28;100861.65;;;17.36;74.64
60817;BME280;51921;51.518;-3.188;2022-08-23T04:04:53;100857.64;;;15.94;81.43
60817;BME280;51921;51.518;-3.188;2022-08-23T04:07:19;100854.96;;;18.69;72.84
60817;BME280;51921;51.518;-3.188;2022-08-23T04:09:44;100857.84;;;19.21;71.48
60817;BME280;51921;51.518;-3.188;2022-08-23T04:12:09;100853.70;;;19.00;70.84
60817;BME280;51921;51.518;-3.188;2022-08-23T04:14:35;100858.06;;;19.55;68.36
60817;BME280;51921;51.518;-3.188;2022-08-23T04:17:00;100867.31;;;18.80;69.97
60817;BME280;51921;51.518;-3.188;2022-08-23T04:19:26;100872.55;;;20.07;65.20
60817;BME280;51921;51.518;-3.188;2022-08-23T04:21:51;100876.31;;;19.88;67.27
60817;BME280;51921;51.518;-3.188;2022-08-23T04:24:17;100876.45;;;19.90;67.30
60817;BME280;51921;51.518;-3.188;2022-08-23T04:26:42;100875.21;;;19.21;69.63
60817;BME280;51921;51.518;-3.188;2022-08-23T04:29:07;100867.20;;;18.14;72.59
60817;BME280;51921;51.518;-3.188;2022-08-23T04:31:33;100859.93;;;16.50;79.82
60817;BME280;51921;51.518;-3.188;2022-08-23T04:33:58;100864.61;;;16.19;83.10
60817;BME280;51921;51.518;-3.188;2022-08-23T04:36:23;100870.17;;;18.08;75.67
60817;BME280;51921;51.518;-3.188;2022-08-23T04:38:49;100878.95;;;19.10;71.23
60817;BME280;51921;51.518;-3.188;2022-08-23T04:41:14;100885.30;;;19.47;70.13
60817;BME280;51921;51.518;-3.188;2022-08-23T04:43:40;100883.55;;;19.82;67.11
60817;BME280;51921;51.518;-3.188;2022-08-23T04:46:05;100886.08;;;21.01;63.62
60817;BME280;51921;51.518;-3.188;2022-08-23T04:48:30;100889.53;;;18.94;69.68
60817;BME280;51921;51.518;-3.188;2022-08-23T04:50:55;100882.97;;;16.97;77.42
60817;BME280;51921;51.518;-3.188;2022-08-23T04:53:21;100890.39;;;18.68;72.12
60817;BME280;51921;51.518;-3.188;2022-08-23T04:55:46;100889.91;;;17.78;74.19
60817;BME280;51921;51.518;-3.188;2022-08-23T04:58:12;100886.97;;;17.58;75.57
60817;BME280;51921;51.518;-3.188;2022-08-23T05:00:37;100882.18;;;18.16;74.33
60817;BME280;51921;51.518;-3.188;2022-08-23T05:03:02;100879.15;;;15.84;82.06
60817;BME280;51921;51.518;-3.188;2022-08-23T05:05:28;100872.81;;;17.63;78.71
60817;BME280;51921;51.518;-3.188;2022-08-23T05:07:53;100876.97;;;18.09;75.07
60817;BME280;51921;51.518;-3.188;2022-08-23T05:10:18;100877.50;;;18.68;72.70
60817;BME280;51921;51.518;-3.188;2022-08-23T05:12:44;100886.46;;;18.82;73.28
60817;BME280;51921;51.518;-3.188;2022-08-23T05:15:10;100891.97;;;19.61;70.26
60817;BME280;51921;51.518;-3.188;2022-08-23T05:17:35;100894.36;;;19.55;69.41
60817;BME280;51921;51.518;-3.188;2022-08-23T05:20:00;100896.66;;;19.74;68.32
60817;BME280;51921;51.518;-3.188;2022-08-23T05:22:25;100895.26;;;20.63;64.65
60817;BME280;51921;51.518;-3.188;2022-08-23T05:24:50;100902.62;;;19.30;69.30
60817;BME280;51921;51.518;-3.188;2022-08-23T05:27:16;100904.43;;;19.93;67.91
60817;BME280;51921;51.518;-3.188;2022-08-23T05:29:42;100897.32;;;19.34;67.84
60817;BME280;51921;51.518;-3.188;2022-08-23T05:32:07;100890.72;;;16.92;79.00
60817;BME280;51921;51.518;-3.188;2022-08-23T05:34:32;100896.97;;;18.01;76.35
60817;BME280;51921;51.518;-3.188;2022-08-23T05:36:58;100902.24;;;19.99;69.88
60817;BME280;51921;51.518;-3.188;2022-08-23T05:39:23;100902.78;;;19.32;70.13
60817;BME280;51921;51.518;-3.188;2022-08-23T05:41:48;100901.61;;;19.61;70.77
60817;BME280;51921;51.518;-3.188;2022-08-23T05:44:14;100899.50;;;18.05;74.44
60817;BME280;51921;51.518;-3.188;2022-08-23T05:46:39;100900.94;;;18.42;75.68
60817;BME280;51921;51.518;-3.188;2022-08-23T05:49:04;100902.64;;;17.97;78.32
60817;BME280;51921;51.518;-3.188;2022-08-23T05:51:32;100900.67;;;18.26;74.71
60817;BME280;51921;51.518;-3.188;2022-08-23T05:53:58;100901.92;;;17.91;78.36
60817;BME280;51921;51.518;-3.188;2022-08-23T05:56:23;100903.67;;;16.74;81.49
60817;BME280;51921;51.518;-3.188;2022-08-23T05:58:47;100903.36;;;16.66;82.76
60817;BME280;51921;51.518;-3.188;2022-08-23T06:01:12;100905.34;;;16.95;82.23
60817;BME280;51921;51.518;-3.188;2022-08-23T06:03:37;100912.20;;;18.64;76.31
60817;BME280;51921;51.518;-3.188;2022-08-23T06:06:03;100910.94;;;17.17;78.95
60817;BME280;51921;51.518;-3.188;2022-08-23T06:08:28;100908.94;;;18.32;77.57
60817;BME280;51921;51.518;-3.188;2022-08-23T06:10:58;100902.15;;;18.14;77.67
60817;BME280;51921;51.518;-3.188;2022-08-23T06:13:18;100896.41;;;17.05;80.55
60817;BME280;51921;51.518;-3.188;2022-08-23T06:15:44;100897.72;;;17.23;81.24
60817;BME280;51921;51.518;-3.188;2022-08-23T06:18:09;100898.06;;;18.58;75.86
60817;BME280;51921;51.518;-3.188;2022-08-23T06:20:34;100894.24;;;20.16;70.37
60817;BME280;51921;51.518;-3.188;2022-08-23T06:23:00;100897.09;;;20.17;70.23
60817;BME280;51921;51.518;-3.188;2022-08-23T06:25:25;100896.20;;;20.45;70.38
60817;BME280;51921;51.518;-3.188;2022-08-23T06:27:51;100895.24;;;21.03;68.38
60817;BME280;51921;51.518;-3.188;2022-08-23T06:30:16;100901.26;;;19.40;70.89
60817;BME280;51921;51.518;-3.188;2022-08-23T06:32:41;100905.84;;;18.59;74.74
60817;BME280;51921;51.518;-3.188;2022-08-23T06:35:08;100904.33;;;20.04;70.01
60817;BME280;51921;51.518;-3.188;2022-08-23T06:37:33;100907.91;;;20.91;66.74
60817;BME280;51921;51.518;-3.188;2022-08-23T06:39:58;100911.53;;;19.82;67.78
60817;BME280;51921;51.518;-3.188;2022-08-23T06:42:23;100913.83;;;19.74;69.43
60817;BME280;51921;51.518;-3.188;2022-08-23T06:44:49;100919.14;;;19.55;68.64
60817;BME280;51921;51.518;-3.188;2022-08-23T06:47:14;100923.09;;;18.41;74.96
60817;BME280;51921;51.518;-3.188;2022-08-23T06:49:39;100926.89;;;19.18;74.75
60817;BME280;51921;51.518;-3.188;2022-08-23T06:52:05;100920.29;;;19.85;71.28
60817;BME280;51921;51.518;-3.188;2022-08-23T06:54:32;100925.30;;;19.59;72.99
60817;BME280;51921;51.518;-3.188;2022-08-23T06:56:56;100924.01;;;20.18;70.31
60817;BME280;51921;51.518;-3.188;2022-08-23T06:59:21;100929.17;;;18.42;75.05
60817;BME280;51921;51.518;-3.188;2022-08-23T07:01:48;100926.39;;;17.83;77.96
60817;BME280;51921;51.518;-3.188;2022-08-23T07:04:13;100929.54;;;18.83;74.59
60817;BME280;51921;51.518;-3.188;2022-08-23T07:06:37;100934.28;;;18.83;75.44
60817;BME280;51921;51.518;-3.188;2022-08-23T07:09:03;100930.49;;;20.31;70.68
60817;BME280;51921;51.518;-3.188;2022-08-23T07:11:28;100932.90;;;19.88;72.00
60817;BME280;51921;51.518;-3.188;2022-08-23T07:13:53;100935.22;;;20.31;69.57
60817;BME280;51921;51.518;-3.188;2022-08-23T07:16:19;100935.73;;;20.43;70.27
60817;BME280;51921;51.518;-3.188;2022-08-23T07:18:44;100937.90;;;20.28;69.27
60817;BME280;51921;51.518;-3.188;2022-08-23T07:21:09;100943.14;;;20.65;66.97
60817;BME280;51921;51.518;-3.188;2022-08-23T07:23:34;100947.88;;;18.17;74.91
60817;BME280;51921;51.518;-3.188;2022-08-23T07:25:59;100947.90;;;19.92;70.51
60817;BME280;51921;51.518;-3.188;2022-08-23T07:28:25;100943.57;;;20.33;68.62
60817;BME280;51921;51.518;-3.188;2022-08-23T07:30:50;100944.15;;;20.81;67.93
60817;BME280;51921;51.518;-3.188;2022-08-23T07:33:16;100952.18;;;21.19;66.60
60817;BME280;51921;51.518;-3.188;2022-08-23T07:35:46;100954.30;;;21.10;66.27
60817;BME280;51921;51.518;-3.188;2022-08-23T07:38:06;100953.51;;;20.97;66.57
60817;BME280;51921;51.518;-3.188;2022-08-23T07:40:32;100953.13;;;20.10;68.35
60817;BME280;51921;51.518;-3.188;2022-08-23T07:42:57;100950.64;;;21.04;66.18
60817;BME280;51921;51.518;-3.188;2022-08-23T07:45:22;100954.09;;;19.38;70.69
60817;BME280;51921;51.518;-3.188;2022-08-23T07:47:48;100949.25;;;20.14;70.95
60817;BME280;51921;51.518;-3.188;2022-08-23T07:50:13;100953.58;;;20.80;68.95
60817;BME280;51921;51.518;-3.188;2022-08-23T07:52:38;100956.34;;;21.21;68.07
60817;BME280;51921;51.518;-3.188;2022-08-23T07:55:04;100953.97;;;20.85;68.22
60817;BME280;51921;51.518;-3.188;2022-08-23T07:57:29;100953.43;;;20.52;67.86
60817;BME280;51921;51.518;-3.188;2022-08-23T07:59:54;100962.70;;;19.49;73.47
60817;BME280;51921;51.518;-3.188;2022-08-23T08:02:20;100957.35;;;20.28;70.52
60817;BME280;51921;51.518;-3.188;2022-08-23T08:04:45;100962.71;;;20.67;69.09
60817;BME280;51921;51.518;-3.188;2022-08-23T08:07:10;100970.33;;;19.88;70.98
60817;BME280;51921;51.518;-3.188;2022-08-23T08:09:35;100970.05;;;19.72;75.41
60817;BME280;51921;51.518;-3.188;2022-08-23T08:12:01;100973.26;;;19.31;75.16
60817;BME280;51921;51.518;-3.188;2022-08-23T08:14:26;100980.73;;;19.08;76.71
60817;BME280;51921;51.518;-3.188;2022-08-23T08:16:51;100974.29;;;21.12;71.08
60817;BME280;51921;51.518;-3.188;2022-08-23T08:19:18;100972.88;;;21.27;69.61
60817;BME280;51921;51.518;-3.188;2022-08-23T08:21:43;100972.49;;;20.15;72.66
60817;BME280;51921;51.518;-3.188;2022-08-23T08:24:09;100971.38;;;19.54;77.12
60817;BME280;51921;51.518;-3.188;2022-08-23T08:26:33;100966.99;;;20.49;75.18
60817;BME280;51921;51.518;-3.188;2022-08-23T08:28:58;100968.45;;;20.20;73.81
60817;BME280;51921;51.518;-3.188;2022-08-23T08:31:24;100965.65;;;21.34;71.04
60817;BME280;51921;51.518;-3.188;2022-08-23T08:33:49;100965.55;;;20.14;72.26
60817;BME280;51921;51.518;-3.188;2022-08-23T08:36:28;100968.58;;;20.14;74.02
60817;BME280;51921;51.518;-3.188;2022-08-23T08:38:39;100973.16;;;19.34;75.98
60817;BME280;51921;51.518;-3.188;2022-08-23T08:41:10;100977.57;;;19.23;77.59
60817;BME280;51921;51.518;-3.188;2022-08-23T08:43:37;100977.68;;;20.59;74.98
60817;BME280;51921;51.518;-3.188;2022-08-23T08:46:02;100980.14;;;19.55;76.88
60817;BME280;51921;51.518;-3.188;2022-08-23T08:48:22;100981.16;;;19.98;77.61
60817;BME280;51921;51.518;-3.188;2022-08-23T08:50:49;100985.19;;;19.52;77.64
60817;BME280;51921;51.518;-3.188;2022-08-23T08:53:15;100983.02;;;20.05;77.90
60817;BME280;51921;51.518;-3.188;2022-08-23T08:55:41;100983.48;;;19.05;83.03
60817;BME280;51921;51.518;-3.188;2022-08-23T08:58:05;100989.85;;;19.84;80.32
60817;BME280;51921;51.518;-3.188;2022-08-23T09:00:31;100991.05;;;19.32;80.96
60817;BME280;51921;51.518;-3.188;2022-08-23T09:02:53;100995.98;;;20.27;79.00
60817;BME280;51921;51.518;-3.188;2022-08-23T09:05:22;100999.01;;;19.43;82.31
60817;BME280;51921;51.518;-3.188;2022-08-23T09:07:52;100996.55;;;20.79;77.74
60817;BME280;51921;51.518;-3.188;2022-08-23T09:10:22;100999.65;;;20.18;79.86
60817;BME280;51921;51.518;-3.188;2022-08-23T09:12:41;100999.30;;;20.27;79.66
60817;BME280;51921;51.518;-3.188;2022-08-23T09:17:30;100996.64;;;21.03;75.74
60817;BME280;51921;51.518;-3.188;2022-08-23T09:19:52;100996.04;;;20.44;75.99
60817;BME280;51921;51.518;-3.188;2022-08-23T09:22:20;100999.03;;;20.82;74.74
60817;BME280;51921;51.518;-3.188;2022-08-23T09:24:41;101006.09;;;20.24;77.34
60817;BME280;51921;51.518;-3.188;2022-08-23T09:27:08;101010.39;;;19.92;78.42
60817;BME280;51921;51.518;-3.188;2022-08-23T09:29:34;101007.19;;;20.14;79.70
60817;BME280;51921;51.518;-3.188;2022-08-23T09:31:59;101008.33;;;19.80;80.89
60817;BME280;51921;51.518;-3.188;2022-08-23T09:36:48;101012.93;;;19.60;83.76
60817;BME280;51921;51.518;-3.188;2022-08-23T09:39:24;101014.52;;;19.69;85.20
60817;BME280;51921;51.518;-3.188;2022-08-23T09:41:40;101011.96;;;19.77;84.99
60817;BME280;51921;51.518;-3.188;2022-08-23T09:44:06;101006.03;;;20.51;83.11
60817;BME280;51921;51.518;-3.188;2022-08-23T09:46:32;101008.62;;;19.55;83.51
60817;BME280;51921;51.518;-3.188;2022-08-23T09:48:54;101008.85;;;20.24;83.42
60817;BME280;51921;51.518;-3.188;2022-08-23T09:51:22;101002.72;;;19.83;84.90
60817;BME280;51921;51.518;-3.188;2022-08-23T09:53:47;101005.02;;;20.06;83.89
60817;BME280;51921;51.518;-3.188;2022-08-23T09:56:12;101003.18;;;20.07;83.07
60817;BME280;51921;51.518;-3.188;2022-08-23T09:58:37;100996.35;;;21.02;80.88
60817;BME280;51921;51.518;-3.188;2022-08-23T10:01:08;100999.66;;;20.72;78.22
60817;BME280;51921;51.518;-3.188;2022-08-23T10:03:28;100994.72;;;21.03;75.70
60817;BME280;51921;51.518;-3.188;2022-08-23T10:05:53;100995.76;;;21.10;73.88
60817;BME280;51921;51.518;-3.188;2022-08-23T10:08:22;100996.41;;;20.65;74.03
60817;BME280;51921;51.518;-3.188;2022-08-23T10:10:45;100996.17;;;20.55;75.05
60817;BME280;51921;51.518;-3.188;2022-08-23T10:13:07;100999.53;;;20.82;71.93
60817;BME280;51921;51.518;-3.188;2022-08-23T10:15:44;101003.75;;;20.48;74.38
60817;BME280;51921;51.518;-3.188;2022-08-23T10:18:01;101009.22;;;19.25;79.13
60817;BME280;51921;51.518;-3.188;2022-08-23T10:20:32;101013.65;;;19.35;79.84
60817;BME280;51921;51.518;-3.188;2022-08-23T10:22:52;101022.70;;;18.33;85.53
60817;BME280;51921;51.518;-3.188;2022-08-23T10:25:21;101018.93;;;18.84;86.29
60817;BME280;51921;51.518;-3.188;2022-08-23T10:27:44;101018.97;;;17.98;91.49
60817;BME280;51921;51.518;-3.188;2022-08-23T10:30:07;101020.88;;;18.73;90.78
60817;BME280;51921;51.518;-3.188;2022-08-23T10:32:42;101021.03;;;18.57;91.93
60817;BME280;51921;51.518;-3.188;2022-08-23T10:35:05;101019.32;;;18.81;88.18
60817;BME280;51921;51.518;-3.188;2022-08-23T10:37:40;101024.12;;;18.13;90.97
60817;BME280;51921;51.518;-3.188;2022-08-23T10:39:53;101021.85;;;19.28;85.42
60817;BME280;51921;51.518;-3.188;2022-08-23T10:42:17;101020.48;;;19.70;82.04
60817;BME280;51921;51.518;-3.188;2022-08-23T10:44:40;101023.52;;;19.41;83.63
60817;BME280;51921;51.518;-3.188;2022-08-23T10:47:11;101020.16;;;19.01;83.34
60817;BME280;51921;51.518;-3.188;2022-08-23T10:49:27;101022.84;;;19.28;84.65
60817;BME280;51921;51.518;-3.188;2022-08-23T10:51:53;101023.88;;;18.42;86.57
60817;BME280;51921;51.518;-3.188;2022-08-23T10:54:23;101027.92;;;18.43;85.26
60817;BME280;51921;51.518;-3.188;2022-08-23T10:56:44;101028.27;;;19.22;81.23
60817;BME280;51921;51.518;-3.188;2022-08-23T10:59:11;101026.99;;;19.07;80.95
60817;BME280;51921;51.518;-3.188;2022-08-23T11:01:38;101025.35;;;19.29;78.12
60817;BME280;51921;51.518;-3.188;2022-08-23T11:04:03;101023.70;;;18.28;79.53
60817;BME280;51921;51.518;-3.188;2022-08-23T11:08:56;101027.87;;;17.51;82.73
60817;BME280;51921;51.518;-3.188;2022-08-23T11:11:35;101022.76;;;17.69;82.69
60817;BME280;51921;51.518;-3.188;2022-08-23T11:13:49;101020.51;;;19.07;79.38
60817;BME280;51921;51.518;-3.188;2022-08-23T11:16:12;101017.98;;;19.80;75.18
60817;BME280;51921;51.518;-3.188;2022-08-23T11:18:38;101019.06;;;19.03;77.33
60817;BME280;51921;51.518;-3.188;2022-08-23T11:21:01;101021.71;;;19.97;75.43
60817;BME280;51921;51.518;-3.188;2022-08-23T11:23:36;101021.56;;;19.81;74.74
60817;BME280;51921;51.518;-3.188;2022-08-23T11:25:47;101018.95;;;20.18;72.54
60817;BME280;51921;51.518;-3.188;2022-08-23T11:28:30;101018.40;;;19.82;73.54
60817;BME280;51921;51.518;-3.188;2022-08-23T11:30:44;101017.85;;;21.18;72.45
60817;BME280;51921;51.518;-3.188;2022-08-23T11:33:12;101022.19;;;20.27;73.81
60817;BME280;51921;51.518;-3.188;2022-08-23T11:35:36;101015.22;;;20.87;70.69
60817;BME280;51921;51.518;-3.188;2022-08-23T11:37:57;101017.47;;;19.95;72.50
60817;BME280;51921;51.518;-3.188;2022-08-23T11:40:37;101025.14;;;20.24;70.57
60817;BME280;51921;51.518;-3.188;2022-08-23T11:42:48;101020.06;;;19.75;70.20
60817;BME280;51921;51.518;-3.188;2022-08-23T11:45:21;101015.18;;;19.77;69.24
60817;BME280;51921;51.518;-3.188;2022-08-23T11:47:39;101010.01;;;20.03;68.61
60817;BME280;51921;51.518;-3.188;2022-08-23T11:50:14;101014.49;;;19.32;72.73
60817;BME280;51921;51.518;-3.188;2022-08-23T11:52:45;101019.48;;;19.74;73.03
60817;BME280;51921;51.518;-3.188;2022-08-23T11:57:29;101016.91;;;19.88;69.83
60817;BME280;51921;51.518;-3.188;2022-08-23T12:04:35;101021.33;;;20.30;66.79
60817;BME280;51921;51.518;-3.188;2022-08-23T12:06:58;101021.35;;;20.89;65.20
60817;BME280;51921;51.518;-3.188;2022-08-23T12:16:39;101026.94;;;21.37;61.08
60817;BME280;51921;51.518;-3.188;2022-08-23T12:19:08;101029.30;;;20.74;61.69
60817;BME280;51921;51.518;-3.188;2022-08-23T12:21:33;101028.75;;;20.94;62.26
60817;BME280;51921;51.518;-3.188;2022-08-23T12:23:58;101028.13;;;21.12;62.88
60817;BME280;51921;51.518;-3.188;2022-08-23T12:26:25;101028.42;;;20.73;64.70
60817;BME280;51921;51.518;-3.188;2022-08-23T12:28:50;101025.17;;;20.37;64.18
60817;BME280;51921;51.518;-3.188;2022-08-23T12:31:20;101025.99;;;20.82;62.83
60817;BME280;51921;51.518;-3.188;2022-08-23T12:33:43;101019.02;;;21.37;60.82
60817;BME280;51921;51.518;-3.188;2022-08-23T12:36:09;101018.31;;;21.06;63.08
60817;BME280;51921;51.518;-3.188;2022-08-23T12:38:33;101017.63;;;21.97;60.94
60817;BME280;51921;51.518;-3.188;2022-08-23T12:40:53;101020.71;;;22.32;60.28
60817;BME280;51921;51.518;-3.188;2022-08-23T12:43:20;101016.89;;;21.72;60.26
60817;BME280;51921;51.518;-3.188;2022-08-23T12:45:46;101015.73;;;21.37;62.64
60817;BME280;51921;51.518;-3.188;2022-08-23T12:48:15;101020.27;;;21.87;60.04
60817;BME280;51921;51.518;-3.188;2022-08-23T12:50:36;101018.23;;;21.70;60.59